Christina O — C6FN7 — position and weather

sailwx.info

Track history (hours):
 
Tides and Currents Weather Stations Pressure Air Temp Water Temp Dewpoint Dewpoint Depression Visibility Wind Speed Wind Dir Waves Ship Positions

Christina O

Operator: V Ships Leisure SAM

Last reported at 2018-May-27 05:22 UTC. Time now 2018-May-27 09:41 UTC.
Position N 37°39' E 016°18'.

Length 186 m; draft 6.1 m.

Type: Passenger vessel. MMSI: 308322000.

Date/timePositionNaut miles runAvg speedWind from/ knotsBaromVisibWave heightAir tempDewpointWater temp
2018-May-27 05:22N 37°39' E 016°18'715.0
2018-May-27 04:54N 37°34' E 016°12'614.9
2018-May-27 04:30N 37°29' E 016°08'2115.0
2018-May-27 03:05N 37°13' E 015°51'314.8
2018-May-27 02:53N 37°10' E 015°48'99 4.9
2018-May-26 06:37N 35°53' E 014°30'0 0.0
2018-May-26 06:25N 35°53' E 014°30'1 1.3
2018-May-26 05:30N 35°54' E 014°32'610.4
2018-May-26 04:58N 35°58' E 014°36'612.0
2018-May-26 04:30N 36°03' E 014°40'712.9
2018-May-26 04:00N 36°08' E 014°45'713.5
2018-May-26 03:30N 36°13' E 014°51'713.7
2018-May-26 03:00N 36°18' E 014°56'714.0
2018-May-26 02:30N 36°24' E 015°02'713.8
2018-May-26 02:00N 36°29' E 015°07'813.9
2018-May-26 01:27N 36°35' E 015°13'4813.6
2018-May-25 21:55N 37°22' E 015°24'30 1.7
2018-May-25 04:50N 37°52' E 015°22'411.4
2018-May-25 04:26N 37°55' E 015°25'811.1
2018-May-25 03:45N 38°02' E 015°31'311.2
2018-May-25 03:30N 38°04' E 015°32'611.7
2018-May-25 03:00N 38°09' E 015°35'713.6
2018-May-25 02:30N 38°15' E 015°39'5 9.5
2018-May-25 02:00N 38°20' E 015°37'713.0
2018-May-25 01:30N 38°21' E 015°29'713.2
2018-May-25 01:01N 38°20' E 015°20'713.5
2018-May-25 00:30N 38°19' E 015°12'612.8
2018-May-25 00:00N 38°18' E 015°03'612.2
2018-May-24 23:31N 38°18' E 014°56'612.3
2018-May-24 23:00N 38°17' E 014°48'612.3
2018-May-24 22:29N 38°16' E 014°40'612.2
2018-May-24 22:00N 38°16' E 014°32'3312.4
2018-May-24 19:20N 38°13' E 013°51'412.5
2018-May-24 19:00N 38°13' E 013°45'612.4
2018-May-24 18:30N 38°12' E 013°38'612.4
2018-May-24 18:00N 38°10' E 013°30'612.5
2018-May-24 17:31N 38°07' E 013°23'1 2.2
2018-May-24 16:59N 38°08' E 013°22'0 0.0
2018-May-24 16:29N 38°08' E 013°22'0 0.0
2018-May-24 15:59N 38°08' E 013°22'0 0.0
2018-May-24 15:29N 38°08' E 013°22'0 0.0
2018-May-24 14:59N 38°08' E 013°22'0 0.0
2018-May-24 14:29N 38°08' E 013°22'0 0.0
2018-May-24 13:59N 38°08' E 013°22'0 0.0
2018-May-24 13:29N 38°08' E 013°22'0 0.0
2018-May-24 08:59N 38°08' E 013°22'0 0.0
2018-May-24 08:29N 38°08' E 013°22'0 0.0
2018-May-24 07:59N 38°08' E 013°22'0 0.0
2018-May-24 07:29N 38°08' E 013°22'0 0.0
2018-May-24 06:59N 38°08' E 013°22'0 0.0
2018-May-24 06:29N 38°08' E 013°22'0 0.4
2018-May-24 06:00N 38°08' E 013°22'2 3.0
2018-May-24 05:30N 38°08' E 013°24'611.3
2018-May-24 05:00N 38°13' E 013°26'713.2
2018-May-24 04:30N 38°20' E 013°28'611.4
2018-May-24 04:01N 38°25' E 013°30'611.6
2018-May-24 03:30N 38°31' E 013°32'611.8
2018-May-24 03:00N 38°37' E 013°33'611.8
2018-May-24 02:31N 38°43' E 013°35'611.8
2018-May-24 02:00N 38°48' E 013°37'10711.8
2018-May-23 16:56N 40°33' E 014°10'511.5
2018-May-23 16:31N 40°36' E 014°14'612.0
2018-May-23 16:01N 40°39' E 014°21'2 3.1
2018-May-23 15:31N 40°38' E 014°23'0 0.3
2018-May-23 14:58N 40°38' E 014°23'0 0.1
2018-May-23 14:26N 40°38' E 014°23'0 0.2
2018-May-23 13:58N 40°38' E 014°23'0 0.0
2018-May-23 13:28N 40°38' E 014°23'0 0.0
2018-May-23 12:58N 40°38' E 014°23'0 0.0
2018-May-23 12:28N 40°38' E 014°23'0 0.0
2018-May-23 11:58N 40°38' E 014°23'0 0.0
2018-May-23 11:28N 40°38' E 014°23'0 0.0
2018-May-23 10:56N 40°38' E 014°23'0 0.0
2018-May-23 10:26N 40°38' E 014°23'0 0.1
2018-May-23 09:58N 40°38' E 014°23'0 0.1
2018-May-23 09:28N 40°38' E 014°23'0 0.0
2018-May-23 08:58N 40°38' E 014°23'0 0.0
2018-May-23 08:28N 40°38' E 014°23'0 0.0
2018-May-23 07:58N 40°38' E 014°23'0 0.0
2018-May-23 07:28N 40°38' E 014°23'0 0.0
2018-May-23 06:58N 40°38' E 014°23'0 0.0
2018-May-23 06:28N 40°38' E 014°23'0 0.0
2018-May-23 05:58N 40°38' E 014°23'0 0.1
2018-May-23 05:30N 40°38' E 014°23'2 3.8
2018-May-23 05:00N 40°39' E 014°21'713.6
2018-May-23 04:30N 40°39' E 014°12'713.1
2018-May-23 04:00N 40°39' E 014°03'714.0
2018-May-23 03:30N 40°38' E 013°54'713.3
2018-May-23 03:00N 40°41' E 013°46'714.0
2018-May-23 02:31N 40°45' E 013°39'  
2018-May-20 01:52N 42°02' E 009°42'411.7
2018-May-20 01:30N 42°06' E 009°43'611.7
2018-May-20 01:00N 42°12' E 009°45'1811.7
2018-May-19 23:30N 42°29' E 009°51'611.6
2018-May-19 23:00N 42°35' E 009°53'611.7
2018-May-19 22:30N 42°40' E 009°55'611.9
2018-May-19 22:00N 42°46' E 009°57'611.7
2018-May-19 21:29N 42°52' E 009°59'611.8
2018-May-19 21:00N 42°58' E 010°01'611.8
2018-May-19 20:30N 43°03' E 010°03'611.7
2018-May-19 20:00N 43°09' E 010°05'611.7
2018-May-19 19:30N 43°15' E 010°07'611.9
2018-May-19 19:00N 43°20' E 010°09'611.8
2018-May-19 18:30N 43°26' E 010°11'611.6
2018-May-19 18:00N 43°31' E 010°14'3 6.0
2018-May-19 17:30N 43°33' E 010°18'0 0.0
2018-May-19 17:00N 43°33' E 010°18'0 0.0
2018-May-19 16:30N 43°33' E 010°18'0 0.0
2018-May-19 16:00N 43°33' E 010°18'0 0.0
2018-May-19 15:30N 43°33' E 010°18'0 0.0
2018-May-19 15:00N 43°33' E 010°18'0 0.0
2018-May-19 14:30N 43°33' E 010°18'0 0.0
2018-May-19 14:00N 43°33' E 010°18'0 0.0
2018-May-19 13:30N 43°33' E 010°18'0 0.0
2018-May-19 13:00N 43°33' E 010°18'0 0.0
2018-May-19 12:30N 43°33' E 010°18'0 0.0
2018-May-19 12:00N 43°33' E 010°18'0 0.0
2018-May-19 11:30N 43°33' E 010°18'0 0.0
2018-May-19 11:00N 43°33' E 010°18'0 0.0
2018-May-19 10:30N 43°33' E 010°18'0 0.0
2018-May-19 10:00N 43°33' E 010°18'0 0.0
2018-May-19 09:30N 43°33' E 010°18'0 0.0
2018-May-19 08:57N 43°33' E 010°18'0 0.0
2018-May-19 08:27N 43°33' E 010°18'0 0.0
2018-May-19 08:00N 43°33' E 010°18'0 0.0
2018-May-19 07:30N 43°33' E 010°18'0 0.0
2018-May-19 06:57N 43°33' E 010°18'0 0.0
2018-May-19 06:30N 43°33' E 010°18'0 0.0
2018-May-19 06:00N 43°33' E 010°18'0 0.0
2018-May-19 05:30N 43°33' E 010°18'0 0.0
2018-May-19 05:00N 43°33' E 010°18'0 0.0
2018-May-19 04:30N 43°33' E 010°18'0 0.0
2018-May-19 04:00N 43°33' E 010°18'0 0.0
2018-May-19 03:30N 43°33' E 010°18'0 0.0
2018-May-19 03:00N 43°33' E 010°18'0 0.0
2018-May-19 02:30N 43°33' E 010°18'0 0.0
2018-May-19 02:00N 43°33' E 010°18'0 0.0
2018-May-19 01:30N 43°33' E 010°18'0 0.0
2018-May-19 01:00N 43°33' E 010°18'0 0.0
2018-May-19 00:30N 43°33' E 010°18'0 0.0
2018-May-19 00:00N 43°33' E 010°18'0 0.0
2018-May-18 23:30N 43°33' E 010°18'0 0.0
2018-May-18 22:57N 43°33' E 010°18'0 0.0
2018-May-18 22:30N 43°33' E 010°18'0 0.0
2018-May-18 22:00N 43°33' E 010°18'0 0.0
2018-May-18 21:30N 43°33' E 010°18'0 0.0
2018-May-18 21:00N 43°33' E 010°18'0 0.0
2018-May-18 20:30N 43°33' E 010°18'0 0.0
2018-May-18 19:57N 43°33' E 010°18'0 0.0
2018-May-18 19:30N 43°33' E 010°18'0 0.0
2018-May-18 19:00N 43°33' E 010°18'0 0.0
2018-May-18 18:30N 43°33' E 010°18'0 0.0
2018-May-18 18:00N 43°33' E 010°18'0 0.0
2018-May-18 17:27N 43°33' E 010°18'0 0.0
2018-May-18 17:00N 43°33' E 010°18'0 0.0
2018-May-18 16:30N 43°33' E 010°18'0 0.0
2018-May-18 16:00N 43°33' E 010°18'0 0.0
2018-May-18 15:30N 43°33' E 010°18'0 0.0
2018-May-18 15:00N 43°33' E 010°18'0 0.0
2018-May-18 14:30N 43°33' E 010°18'0 0.0
2018-May-18 14:00N 43°33' E 010°18'0 0.0
2018-May-18 13:30N 43°33' E 010°18'0 0.0
2018-May-18 13:00N 43°33' E 010°18'0 0.0
2018-May-18 12:30N 43°33' E 010°18'0 0.0
2018-May-18 12:00N 43°33' E 010°18'0 0.0
2018-May-18 11:30N 43°33' E 010°18'0 0.0
2018-May-18 11:00N 43°33' E 010°18'0 0.0
2018-May-18 10:30N 43°33' E 010°18'0 0.0
2018-May-18 09:57N 43°33' E 010°18'0 0.0
2018-May-18 09:30N 43°33' E 010°18'0 0.0
2018-May-18 09:00N 43°33' E 010°18'0 0.0
2018-May-18 08:30N 43°33' E 010°18'0 0.0
2018-May-18 08:00N 43°33' E 010°18'0 0.0
2018-May-18 07:30N 43°33' E 010°18'0 0.0
2018-May-18 07:00N 43°33' E 010°18'0 0.0
2018-May-18 06:30N 43°33' E 010°18'0 0.0
2018-May-18 06:00N 43°33' E 010°18'0 0.5
2018-May-18 05:31N 43°33' E 010°18'2 4.4
2018-May-18 05:01N 43°31' E 010°16'4 8.1
2018-May-18 04:30N 43°30' E 010°11'4 7.6
2018-May-18 04:01N 43°30' E 010°05'5 9.1
2018-May-18 03:31N 43°30' E 009°59'5 9.0
2018-May-18 03:01N 43°32' E 009°53'5 9.7
2018-May-18 02:30N 43°36' E 009°49'5 9.8
2018-May-18 02:00N 43°40' E 009°45'5 9.8
2018-May-18 01:31N 43°44' E 009°42'510.0
2018-May-18 01:01N 43°48' E 009°38'510.1
2018-May-18 00:31N 43°53' E 009°35'510.2
2018-May-18 00:00N 43°57' E 009°31'510.4
2018-May-17 23:31N 44°02' E 009°28'510.3
2018-May-17 23:01N 44°06' E 009°24'510.4
2018-May-17 22:30N 44°11' E 009°20'510.3
2018-May-17 22:01N 44°15' E 009°17'4 8.4
2018-May-17 21:30N 44°19' E 009°14'0 0.2
2018-May-17 21:00N 44°19' E 009°14'0 0.1
2018-May-17 20:29N 44°19' E 009°14'0 0.0
2018-May-17 19:59N 44°19' E 009°14'0 0.1
2018-May-17 19:30N 44°19' E 009°14'0 0.0
2018-May-17 19:00N 44°19' E 009°14'0 0.0
2018-May-17 18:30N 44°19' E 009°14'0 0.0
2018-May-17 17:50N 44°19' E 009°14'0 0.0
2018-May-17 17:26N 44°19' E 009°14'0 0.0
2018-May-17 16:59N 44°19' E 009°14'0 0.0
2018-May-17 16:30N 44°19' E 009°14'0 0.0
2018-May-17 15:59N 44°19' E 009°14'0 0.0
2018-May-17 15:29N 44°19' E 009°14'0 0.0
2018-May-17 15:00N 44°19' E 009°14'0 0.0
2018-May-17 14:23N 44°19' E 009°14'0 0.0
2018-May-17 13:59N 44°19' E 009°14'0 0.0
2018-May-17 13:29N 44°19' E 009°14'0 0.0
2018-May-17 12:56N 44°19' E 009°14'0 0.0
2018-May-17 12:29N 44°19' E 009°14'0 0.1
2018-May-17 11:59N 44°19' E 009°14'0 0.1
2018-May-17 11:30N 44°19' E 009°14'0 0.0
2018-May-17 10:59N 44°19' E 009°14'0 0.0
2018-May-17 10:30N 44°19' E 009°14'0 0.0
2018-May-17 10:00N 44°19' E 009°14'0 0.1
2018-May-17 09:29N 44°19' E 009°14'0 0.1
2018-May-17 09:00N 44°19' E 009°14'0 0.1
2018-May-17 08:29N 44°19' E 009°14'0 0.1
2018-May-17 08:00N 44°19' E 009°14'0 0.0
2018-May-17 07:30N 44°19' E 009°14'0 0.0
2018-May-17 07:00N 44°19' E 009°14'0 0.1
2018-May-17 06:29N 44°19' E 009°14'0 0.1
2018-May-17 06:00N 44°19' E 009°14'0 0.1
2018-May-17 05:30N 44°19' E 009°14'  
Track history (hours):
 
Tides and Currents Weather Stations Pressure Air Temp Water Temp Dewpoint Dewpoint Depression Visibility Wind Speed Wind Dir Waves Ship Positions

Christina O

Operator: V Ships Leisure SAM

Last reported at 2018-May-27 05:22 UTC. Time now 2018-May-27 09:41 UTC.
Position N 37°39' E 016°18'.

Length 186 m; draft 6.1 m.

Type: Passenger vessel. MMSI: 308322000.

Date/timePositionNaut miles runAvg speedWind from/ knotsBaromVisibWave heightAir tempDewpointWater temp
2018-May-27 05:22N 37°39' E 016°18'715.0
2018-May-27 04:54N 37°34' E 016°12'614.9
2018-May-27 04:30N 37°29' E 016°08'2115.0
2018-May-27 03:05N 37°13' E 015°51'314.8
2018-May-27 02:53N 37°10' E 015°48'99 4.9
2018-May-26 06:37N 35°53' E 014°30'0 0.0
2018-May-26 06:25N 35°53' E 014°30'1 1.3
2018-May-26 05:30N 35°54' E 014°32'610.4
2018-May-26 04:58N 35°58' E 014°36'612.0
2018-May-26 04:30N 36°03' E 014°40'712.9
2018-May-26 04:00N 36°08' E 014°45'713.5
2018-May-26 03:30N 36°13' E 014°51'713.7
2018-May-26 03:00N 36°18' E 014°56'714.0
2018-May-26 02:30N 36°24' E 015°02'713.8
2018-May-26 02:00N 36°29' E 015°07'813.9
2018-May-26 01:27N 36°35' E 015°13'4813.6
2018-May-25 21:55N 37°22' E 015°24'30 1.7
2018-May-25 04:50N 37°52' E 015°22'411.4
2018-May-25 04:26N 37°55' E 015°25'811.1
2018-May-25 03:45N 38°02' E 015°31'311.2
2018-May-25 03:30N 38°04' E 015°32'611.7
2018-May-25 03:00N 38°09' E 015°35'713.6
2018-May-25 02:30N 38°15' E 015°39'5 9.5
2018-May-25 02:00N 38°20' E 015°37'713.0
2018-May-25 01:30N 38°21' E 015°29'713.2
2018-May-25 01:01N 38°20' E 015°20'713.5
2018-May-25 00:30N 38°19' E 015°12'612.8
2018-May-25 00:00N 38°18' E 015°03'612.2
2018-May-24 23:31N 38°18' E 014°56'612.3
2018-May-24 23:00N 38°17' E 014°48'612.3
2018-May-24 22:29N 38°16' E 014°40'612.2
2018-May-24 22:00N 38°16' E 014°32'3312.4
2018-May-24 19:20N 38°13' E 013°51'412.5
2018-May-24 19:00N 38°13' E 013°45'612.4
2018-May-24 18:30N 38°12' E 013°38'612.4
2018-May-24 18:00N 38°10' E 013°30'612.5
2018-May-24 17:31N 38°07' E 013°23'1 2.2
2018-May-24 16:59N 38°08' E 013°22'0 0.0
2018-May-24 16:29N 38°08' E 013°22'0 0.0
2018-May-24 15:59N 38°08' E 013°22'0 0.0
2018-May-24 15:29N 38°08' E 013°22'0 0.0
2018-May-24 14:59N 38°08' E 013°22'0 0.0
2018-May-24 14:29N 38°08' E 013°22'0 0.0
2018-May-24 13:59N 38°08' E 013°22'0 0.0
2018-May-24 13:29N 38°08' E 013°22'0 0.0
2018-May-24 08:59N 38°08' E 013°22'0 0.0
2018-May-24 08:29N 38°08' E 013°22'0 0.0
2018-May-24 07:59N 38°08' E 013°22'0 0.0
2018-May-24 07:29N 38°08' E 013°22'0 0.0
2018-May-24 06:59N 38°08' E 013°22'0 0.0
2018-May-24 06:29N 38°08' E 013°22'0 0.4
2018-May-24 06:00N 38°08' E 013°22'2 3.0
2018-May-24 05:30N 38°08' E 013°24'611.3
2018-May-24 05:00N 38°13' E 013°26'713.2
2018-May-24 04:30N 38°20' E 013°28'611.4
2018-May-24 04:01N 38°25' E 013°30'611.6
2018-May-24 03:30N 38°31' E 013°32'611.8
2018-May-24 03:00N 38°37' E 013°33'611.8
2018-May-24 02:31N 38°43' E 013°35'611.8
2018-May-24 02:00N 38°48' E 013°37'10711.8
2018-May-23 16:56N 40°33' E 014°10'511.5
2018-May-23 16:31N 40°36' E 014°14'612.0
2018-May-23 16:01N 40°39' E 014°21'2 3.1
2018-May-23 15:31N 40°38' E 014°23'0 0.3
2018-May-23 14:58N 40°38' E 014°23'0 0.1
2018-May-23 14:26N 40°38' E 014°23'0 0.2
2018-May-23 13:58N 40°38' E 014°23'0 0.0
2018-May-23 13:28N 40°38' E 014°23'0 0.0
2018-May-23 12:58N 40°38' E 014°23'0 0.0
2018-May-23 12:28N 40°38' E 014°23'0 0.0
2018-May-23 11:58N 40°38' E 014°23'0 0.0
2018-May-23 11:28N 40°38' E 014°23'0 0.0
2018-May-23 10:56N 40°38' E 014°23'0 0.0
2018-May-23 10:26N 40°38' E 014°23'0 0.1
2018-May-23 09:58N 40°38' E 014°23'0 0.1
2018-May-23 09:28N 40°38' E 014°23'0 0.0
2018-May-23 08:58N 40°38' E 014°23'0 0.0
2018-May-23 08:28N 40°38' E 014°23'0 0.0
2018-May-23 07:58N 40°38' E 014°23'0 0.0
2018-May-23 07:28N 40°38' E 014°23'0 0.0
2018-May-23 06:58N 40°38' E 014°23'0 0.0
2018-May-23 06:28N 40°38' E 014°23'0 0.0
2018-May-23 05:58N 40°38' E 014°23'0 0.1
2018-May-23 05:30N 40°38' E 014°23'2 3.8
2018-May-23 05:00N 40°39' E 014°21'713.6
2018-May-23 04:30N 40°39' E 014°12'713.1
2018-May-23 04:00N 40°39' E 014°03'714.0
2018-May-23 03:30N 40°38' E 013°54'713.3
2018-May-23 03:00N 40°41' E 013°46'714.0
2018-May-23 02:31N 40°45' E 013°39'  
2018-May-20 01:52N 42°02' E 009°42'411.7
2018-May-20 01:30N 42°06' E 009°43'611.7
2018-May-20 01:00N 42°12' E 009°45'1811.7
2018-May-19 23:30N 42°29' E 009°51'611.6
2018-May-19 23:00N 42°35' E 009°53'611.7
2018-May-19 22:30N 42°40' E 009°55'611.9
2018-May-19 22:00N 42°46' E 009°57'611.7
2018-May-19 21:29N 42°52' E 009°59'611.8
2018-May-19 21:00N 42°58' E 010°01'611.8
2018-May-19 20:30N 43°03' E 010°03'611.7
2018-May-19 20:00N 43°09' E 010°05'611.7
2018-May-19 19:30N 43°15' E 010°07'611.9
2018-May-19 19:00N 43°20' E 010°09'611.8
2018-May-19 18:30N 43°26' E 010°11'611.6
2018-May-19 18:00N 43°31' E 010°14'3 6.0
2018-May-19 17:30N 43°33' E 010°18'0 0.0
2018-May-19 17:00N 43°33' E 010°18'0 0.0
2018-May-19 16:30N 43°33' E 010°18'0 0.0
2018-May-19 16:00N 43°33' E 010°18'0 0.0
2018-May-19 15:30N 43°33' E 010°18'0 0.0
2018-May-19 15:00N 43°33' E 010°18'0 0.0
2018-May-19 14:30N 43°33' E 010°18'0 0.0
2018-May-19 14:00N 43°33' E 010°18'0 0.0
2018-May-19 13:30N 43°33' E 010°18'0 0.0
2018-May-19 13:00N 43°33' E 010°18'0 0.0
2018-May-19 12:30N 43°33' E 010°18'0 0.0
2018-May-19 12:00N 43°33' E 010°18'0 0.0
2018-May-19 11:30N 43°33' E 010°18'0 0.0
2018-May-19 11:00N 43°33' E 010°18'0 0.0
2018-May-19 10:30N 43°33' E 010°18'0 0.0
2018-May-19 10:00N 43°33' E 010°18'0 0.0
2018-May-19 09:30N 43°33' E 010°18'0 0.0
2018-May-19 08:57N 43°33' E 010°18'0 0.0
2018-May-19 08:27N 43°33' E 010°18'0 0.0
2018-May-19 08:00N 43°33' E 010°18'0 0.0
2018-May-19 07:30N 43°33' E 010°18'0 0.0
2018-May-19 06:57N 43°33' E 010°18'0 0.0
2018-May-19 06:30N 43°33' E 010°18'0 0.0
2018-May-19 06:00N 43°33' E 010°18'0 0.0
2018-May-19 05:30N 43°33' E 010°18'0 0.0
2018-May-19 05:00N 43°33' E 010°18'0 0.0
2018-May-19 04:30N 43°33' E 010°18'0 0.0
2018-May-19 04:00N 43°33' E 010°18'0 0.0
2018-May-19 03:30N 43°33' E 010°18'0 0.0
2018-May-19 03:00N 43°33' E 010°18'0 0.0
2018-May-19 02:30N 43°33' E 010°18'0 0.0
2018-May-19 02:00N 43°33' E 010°18'0 0.0
2018-May-19 01:30N 43°33' E 010°18'0 0.0
2018-May-19 01:00N 43°33' E 010°18'0 0.0
2018-May-19 00:30N 43°33' E 010°18'0 0.0
2018-May-19 00:00N 43°33' E 010°18'0 0.0
2018-May-18 23:30N 43°33' E 010°18'0 0.0
2018-May-18 22:57N 43°33' E 010°18'0 0.0
2018-May-18 22:30N 43°33' E 010°18'0 0.0
2018-May-18 22:00N 43°33' E 010°18'0 0.0
2018-May-18 21:30N 43°33' E 010°18'0 0.0
2018-May-18 21:00N 43°33' E 010°18'0 0.0
2018-May-18 20:30N 43°33' E 010°18'0 0.0
2018-May-18 19:57N 43°33' E 010°18'0 0.0
2018-May-18 19:30N 43°33' E 010°18'0 0.0
2018-May-18 19:00N 43°33' E 010°18'0 0.0
2018-May-18 18:30N 43°33' E 010°18'0 0.0
2018-May-18 18:00N 43°33' E 010°18'0 0.0
2018-May-18 17:27N 43°33' E 010°18'0 0.0
2018-May-18 17:00N 43°33' E 010°18'0 0.0
2018-May-18 16:30N 43°33' E 010°18'0 0.0
2018-May-18 16:00N 43°33' E 010°18'0 0.0
2018-May-18 15:30N 43°33' E 010°18'0 0.0
2018-May-18 15:00N 43°33' E 010°18'0 0.0
2018-May-18 14:30N 43°33' E 010°18'0 0.0
2018-May-18 14:00N 43°33' E 010°18'0 0.0
2018-May-18 13:30N 43°33' E 010°18'0 0.0
2018-May-18 13:00N 43°33' E 010°18'0 0.0
2018-May-18 12:30N 43°33' E 010°18'0 0.0
2018-May-18 12:00N 43°33' E 010°18'0 0.0
2018-May-18 11:30N 43°33' E 010°18'0 0.0
2018-May-18 11:00N 43°33' E 010°18'0 0.0
2018-May-18 10:30N 43°33' E 010°18'0 0.0
2018-May-18 09:57N 43°33' E 010°18'0 0.0
2018-May-18 09:30N 43°33' E 010°18'0 0.0
2018-May-18 09:00N 43°33' E 010°18'0 0.0
2018-May-18 08:30N 43°33' E 010°18'0 0.0
2018-May-18 08:00N 43°33' E 010°18'0 0.0
2018-May-18 07:30N 43°33' E 010°18'0 0.0
2018-May-18 07:00N 43°33' E 010°18'0 0.0
2018-May-18 06:30N 43°33' E 010°18'0 0.0
2018-May-18 06:00N 43°33' E 010°18'0 0.5
2018-May-18 05:31N 43°33' E 010°18'2 4.4
2018-May-18 05:01N 43°31' E 010°16'4 8.1
2018-May-18 04:30N 43°30' E 010°11'4 7.6
2018-May-18 04:01N 43°30' E 010°05'5 9.1
2018-May-18 03:31N 43°30' E 009°59'5 9.0
2018-May-18 03:01N 43°32' E 009°53'5 9.7
2018-May-18 02:30N 43°36' E 009°49'5 9.8
2018-May-18 02:00N 43°40' E 009°45'5 9.8
2018-May-18 01:31N 43°44' E 009°42'510.0
2018-May-18 01:01N 43°48' E 009°38'510.1
2018-May-18 00:31N 43°53' E 009°35'510.2
2018-May-18 00:00N 43°57' E 009°31'510.4
2018-May-17 23:31N 44°02' E 009°28'510.3
2018-May-17 23:01N 44°06' E 009°24'510.4
2018-May-17 22:30N 44°11' E 009°20'510.3
2018-May-17 22:01N 44°15' E 009°17'4 8.4
2018-May-17 21:30N 44°19' E 009°14'0 0.2
2018-May-17 21:00N 44°19' E 009°14'0 0.1
2018-May-17 20:29N 44°19' E 009°14'0 0.0
2018-May-17 19:59N 44°19' E 009°14'0 0.1
2018-May-17 19:30N 44°19' E 009°14'0 0.0
2018-May-17 19:00N 44°19' E 009°14'0 0.0
2018-May-17 18:30N 44°19' E 009°14'0 0.0
2018-May-17 17:50N 44°19' E 009°14'0 0.0
2018-May-17 17:26N 44°19' E 009°14'0 0.0
2018-May-17 16:59N 44°19' E 009°14'0 0.0
2018-May-17 16:30N 44°19' E 009°14'0 0.0
2018-May-17 15:59N 44°19' E 009°14'0 0.0
2018-May-17 15:29N 44°19' E 009°14'0 0.0
2018-May-17 15:00N 44°19' E 009°14'0 0.0
2018-May-17 14:23N 44°19' E 009°14'0 0.0
2018-May-17 13:59N 44°19' E 009°14'0 0.0
2018-May-17 13:29N 44°19' E 009°14'0 0.0
2018-May-17 12:56N 44°19' E 009°14'0 0.0
2018-May-17 12:29N 44°19' E 009°14'0 0.1
2018-May-17 11:59N 44°19' E 009°14'0 0.1
2018-May-17 11:30N 44°19' E 009°14'0 0.0
2018-May-17 10:59N 44°19' E 009°14'0 0.0
2018-May-17 10:30N 44°19' E 009°14'0 0.0
2018-May-17 10:00N 44°19' E 009°14'0 0.1
2018-May-17 09:29N 44°19' E 009°14'0 0.1
2018-May-17 09:00N 44°19' E 009°14'0 0.1
2018-May-17 08:29N 44°19' E 009°14'0 0.1
2018-May-17 08:00N 44°19' E 009°14'0 0.0
2018-May-17 07:30N 44°19' E 009°14'0 0.0
2018-May-17 07:00N 44°19' E 009°14'0 0.1
2018-May-17 06:29N 44°19' E 009°14'0 0.1
2018-May-17 06:00N 44°19' E 009°14'0 0.1
2018-May-17 05:30N 44°19' E 009°14'  

Dump ship's entire track history